sensor_id;sensor_type;location;lat;lon;timestamp;pressure;altitude;pressure_sealevel;temperature;humidity
51829;BME280;37881;48.024;8.774;2023-05-10T00:01:17;93379.91;;;11.76;100.00
51829;BME280;37881;48.024;8.774;2023-05-10T00:03:44;93382.59;;;11.93;100.00
51829;BME280;37881;48.024;8.774;2023-05-10T00:06:10;93379.03;;;11.79;100.00
51829;BME280;37881;48.024;8.774;2023-05-10T00:08:37;93374.38;;;12.06;100.00
51829;BME280;37881;48.024;8.774;2023-05-10T00:11:04;93378.09;;;11.99;100.00
51829;BME280;37881;48.024;8.774;2023-05-10T00:13:31;93380.41;;;12.01;100.00
51829;BME280;37881;48.024;8.774;2023-05-10T00:15:58;93381.97;;;12.14;100.00
51829;BME280;37881;48.024;8.774;2023-05-10T00:18:25;93386.81;;;12.10;100.00
51829;BME280;37881;48.024;8.774;2023-05-10T00:20:52;93382.97;;;12.21;100.00
51829;BME280;37881;48.024;8.774;2023-05-10T00:23:18;93380.75;;;11.90;100.00
51829;BME280;37881;48.024;8.774;2023-05-10T00:25:45;93376.78;;;11.91;100.00
51829;BME280;37881;48.024;8.774;2023-05-10T00:28:12;93377.81;;;12.10;100.00
51829;BME280;37881;48.024;8.774;2023-05-10T00:30:39;93378.31;;;11.92;100.00
51829;BME280;37881;48.024;8.774;2023-05-10T00:33:05;93379.03;;;11.79;100.00
51829;BME280;37881;48.024;8.774;2023-05-10T00:35:32;93386.16;;;11.93;100.00
51829;BME280;37881;48.024;8.774;2023-05-10T00:37:59;93377.78;;;11.97;100.00
51829;BME280;37881;48.024;8.774;2023-05-10T00:40:26;93379.63;;;11.87;100.00
51829;BME280;37881;48.024;8.774;2023-05-10T00:42:53;93376.56;;;11.98;100.00
51829;BME280;37881;48.024;8.774;2023-05-10T00:45:19;93393.41;;;11.71;100.00
51829;BME280;37881;48.024;8.774;2023-05-10T00:47:46;93386.72;;;11.72;100.00
51829;BME280;37881;48.024;8.774;2023-05-10T00:50:14;93391.53;;;11.68;100.00
51829;BME280;37881;48.024;8.774;2023-05-10T00:52:42;93392.88;;;11.76;100.00
51829;BME280;37881;48.024;8.774;2023-05-10T00:55:09;93390.47;;;11.78;100.00
51829;BME280;37881;48.024;8.774;2023-05-10T00:57:38;93392.03;;;11.50;100.00
51829;BME280;37881;48.024;8.774;2023-05-10T01:00:05;93401.63;;;11.58;100.00
51829;BME280;37881;48.024;8.774;2023-05-10T01:02:34;93398.88;;;11.58;100.00
51829;BME280;37881;48.024;8.774;2023-05-10T01:05:02;93397.03;;;11.38;100.00
51829;BME280;37881;48.024;8.774;2023-05-10T01:07:30;93410.03;;;11.22;100.00
51829;BME280;37881;48.024;8.774;2023-05-10T01:09:57;93409.03;;;11.45;100.00
51829;BME280;37881;48.024;8.774;2023-05-10T01:12:24;93409.78;;;11.62;100.00
51829;BME280;37881;48.024;8.774;2023-05-10T01:14:52;93411.31;;;11.63;100.00
51829;BME280;37881;48.024;8.774;2023-05-10T01:17:22;93414.31;;;11.23;100.00
51829;BME280;37881;48.024;8.774;2023-05-10T01:19:49;93421.50;;;11.49;100.00
51829;BME280;37881;48.024;8.774;2023-05-10T01:25:31;93433.13;;;11.24;100.00
51829;BME280;37881;48.024;8.774;2023-05-10T01:31:17;93438.81;;;11.17;100.00
51829;BME280;37881;48.024;8.774;2023-05-10T01:36:48;93430.28;;;11.28;100.00
51829;BME280;37881;48.024;8.774;2023-05-10T01:39:24;93431.34;;;11.17;100.00
51829;BME280;37881;48.024;8.774;2023-05-10T01:42:08;93431.56;;;11.39;100.00
51829;BME280;37881;48.024;8.774;2023-05-10T01:44:45;93438.59;;;11.40;100.00
51829;BME280;37881;48.024;8.774;2023-05-10T01:47:18;93436.28;;;11.23;100.00
51829;BME280;37881;48.024;8.774;2023-05-10T01:49:52;93448.31;;;11.29;100.00
51829;BME280;37881;48.024;8.774;2023-05-10T01:52:24;93449.81;;;11.46;100.00
51829;BME280;37881;48.024;8.774;2023-05-10T01:55:02;93448.53;;;11.51;100.00
51829;BME280;37881;48.024;8.774;2023-05-10T01:57:34;93449.22;;;11.38;100.00
51829;BME280;37881;48.024;8.774;2023-05-10T02:00:03;93448.91;;;11.36;100.00
51829;BME280;37881;48.024;8.774;2023-05-10T02:02:37;93454.72;;;11.38;100.00
51829;BME280;37881;48.024;8.774;2023-05-10T02:05:06;93451.03;;;11.45;100.00
51829;BME280;37881;48.024;8.774;2023-05-10T02:07:37;93455.66;;;11.48;100.00
51829;BME280;37881;48.024;8.774;2023-05-10T02:10:07;93447.84;;;11.47;100.00
51829;BME280;37881;48.024;8.774;2023-05-10T02:12:36;93446.03;;;11.56;100.00
51829;BME280;37881;48.024;8.774;2023-05-10T02:15:05;93437.94;;;11.66;100.00
51829;BME280;37881;48.024;8.774;2023-05-10T02:17:35;93450.47;;;11.67;100.00
51829;BME280;37881;48.024;8.774;2023-05-10T02:20:04;93444.06;;;11.57;100.00
51829;BME280;37881;48.024;8.774;2023-05-10T02:22:33;93459.00;;;11.56;100.00
51829;BME280;37881;48.024;8.774;2023-05-10T02:25:02;93458.56;;;11.57;100.00
51829;BME280;37881;48.024;8.774;2023-05-10T02:27:30;93457.81;;;11.57;100.00
51829;BME280;37881;48.024;8.774;2023-05-10T02:29:57;93453.75;;;11.62;100.00
51829;BME280;37881;48.024;8.774;2023-05-10T02:32:26;93454.19;;;11.60;100.00
51829;BME280;37881;48.024;8.774;2023-05-10T02:34:54;93457.25;;;11.62;100.00
51829;BME280;37881;48.024;8.774;2023-05-10T02:37:22;93459.50;;;11.67;100.00
51829;BME280;37881;48.024;8.774;2023-05-10T02:39:49;93458.69;;;11.67;100.00
51829;BME280;37881;48.024;8.774;2023-05-10T02:42:19;93454.44;;;11.66;100.00
51829;BME280;37881;48.024;8.774;2023-05-10T02:44:51;93463.34;;;11.70;100.00
51829;BME280;37881;48.024;8.774;2023-05-10T02:47:19;93463.69;;;11.72;100.00
51829;BME280;37881;48.024;8.774;2023-05-10T02:49:46;93464.09;;;11.70;100.00
51829;BME280;37881;48.024;8.774;2023-05-10T02:52:16;93472.75;;;11.56;100.00
51829;BME280;37881;48.024;8.774;2023-05-10T02:54:49;93467.84;;;11.64;100.00
51829;BME280;37881;48.024;8.774;2023-05-10T02:57:22;93468.09;;;11.53;100.00
51829;BME280;37881;48.024;8.774;2023-05-10T02:59:51;93467.28;;;11.39;100.00
51829;BME280;37881;48.024;8.774;2023-05-10T03:02:18;93467.06;;;11.47;100.00
51829;BME280;37881;48.024;8.774;2023-05-10T03:04:44;93463.81;;;11.52;100.00
51829;BME280;37881;48.024;8.774;2023-05-10T03:07:11;93463.81;;;11.52;100.00
51829;BME280;37881;48.024;8.774;2023-05-10T03:09:38;93458.09;;;11.30;100.00
51829;BME280;37881;48.024;8.774;2023-05-10T03:12:18;93468.56;;;11.18;100.00
51829;BME280;37881;48.024;8.774;2023-05-10T03:20:06;93464.78;;;11.29;100.00
51829;BME280;37881;48.024;8.774;2023-05-10T03:22:38;93468.03;;;11.40;100.00
51829;BME280;37881;48.024;8.774;2023-05-10T03:25:08;93460.69;;;11.37;100.00
51829;BME280;37881;48.024;8.774;2023-05-10T03:27:40;93467.97;;;11.27;100.00
51829;BME280;37881;48.024;8.774;2023-05-10T03:30:08;93467.72;;;11.22;100.00
51829;BME280;37881;48.024;8.774;2023-05-10T03:32:37;93471.06;;;11.29;100.00
51829;BME280;37881;48.024;8.774;2023-05-10T03:35:11;93475.59;;;11.36;100.00
51829;BME280;37881;48.024;8.774;2023-05-10T03:37:39;93479.41;;;11.26;100.00
51829;BME280;37881;48.024;8.774;2023-05-10T03:40:06;93488.41;;;11.26;100.00
51829;BME280;37881;48.024;8.774;2023-05-10T03:42:32;93479.13;;;11.20;100.00
51829;BME280;37881;48.024;8.774;2023-05-10T03:44:59;93473.56;;;11.24;100.00
51829;BME280;37881;48.024;8.774;2023-05-10T03:47:26;93477.84;;;11.25;100.00
51829;BME280;37881;48.024;8.774;2023-05-10T03:49:53;93481.13;;;11.03;100.00
51829;BME280;37881;48.024;8.774;2023-05-10T03:52:19;93479.91;;;11.04;100.00
51829;BME280;37881;48.024;8.774;2023-05-10T03:54:46;93475.44;;;10.94;100.00
51829;BME280;37881;48.024;8.774;2023-05-10T03:57:13;93480.50;;;10.95;100.00
51829;BME280;37881;48.024;8.774;2023-05-10T03:59:39;93478.88;;;10.98;100.00
51829;BME280;37881;48.024;8.774;2023-05-10T04:02:06;93482.38;;;10.98;100.00
51829;BME280;37881;48.024;8.774;2023-05-10T04:04:33;93481.97;;;11.00;100.00
51829;BME280;37881;48.024;8.774;2023-05-10T04:06:59;93484.97;;;11.06;100.00
51829;BME280;37881;48.024;8.774;2023-05-10T04:09:26;93489.34;;;11.03;100.00
51829;BME280;37881;48.024;8.774;2023-05-10T04:11:53;93493.47;;;10.95;100.00
51829;BME280;37881;48.024;8.774;2023-05-10T04:14:19;93493.72;;;11.00;100.00
51829;BME280;37881;48.024;8.774;2023-05-10T04:16:46;93484.38;;;10.98;100.00
51829;BME280;37881;48.024;8.774;2023-05-10T04:19:13;93494.31;;;11.08;100.00
51829;BME280;37881;48.024;8.774;2023-05-10T04:21:39;93494.31;;;11.08;100.00
51829;BME280;37881;48.024;8.774;2023-05-10T04:24:06;93497.34;;;10.97;100.00
51829;BME280;37881;48.024;8.774;2023-05-10T04:26:33;93499.94;;;11.05;100.00
51829;BME280;37881;48.024;8.774;2023-05-10T04:29:00;93497.94;;;11.05;100.00
51829;BME280;37881;48.024;8.774;2023-05-10T04:31:26;93507.63;;;11.10;100.00
51829;BME280;37881;48.024;8.774;2023-05-10T04:33:54;93504.19;;;11.06;100.00
51829;BME280;37881;48.024;8.774;2023-05-10T04:36:21;93504.88;;;11.10;100.00
51829;BME280;37881;48.024;8.774;2023-05-10T04:38:47;93510.22;;;11.17;100.00
51829;BME280;37881;48.024;8.774;2023-05-10T04:41:14;93507.91;;;11.15;100.00
51829;BME280;37881;48.024;8.774;2023-05-10T04:43:41;93514.06;;;11.19;100.00
51829;BME280;37881;48.024;8.774;2023-05-10T04:46:07;93517.34;;;11.31;100.00
51829;BME280;37881;48.024;8.774;2023-05-10T04:48:34;93512.34;;;11.26;100.00
51829;BME280;37881;48.024;8.774;2023-05-10T04:51:01;93516.75;;;11.23;100.00
51829;BME280;37881;48.024;8.774;2023-05-10T04:53:29;93516.63;;;11.27;100.00
51829;BME280;37881;48.024;8.774;2023-05-10T04:55:56;93512.34;;;11.26;100.00
51829;BME280;37881;48.024;8.774;2023-05-10T04:58:23;93518.47;;;11.17;100.00
51829;BME280;37881;48.024;8.774;2023-05-10T05:00:49;93515.53;;;11.08;100.00
51829;BME280;37881;48.024;8.774;2023-05-10T05:03:16;93512.16;;;10.84;100.00
51829;BME280;37881;48.024;8.774;2023-05-10T05:05:43;93514.53;;;10.65;100.00
51829;BME280;37881;48.024;8.774;2023-05-10T05:08:11;93524.91;;;10.74;100.00
51829;BME280;37881;48.024;8.774;2023-05-10T05:10:37;93525.56;;;10.98;100.00
51829;BME280;37881;48.024;8.774;2023-05-10T05:13:04;93516.13;;;11.15;100.00
51829;BME280;37881;48.024;8.774;2023-05-10T05:15:31;93520.75;;;11.18;100.00
51829;BME280;37881;48.024;8.774;2023-05-10T05:17:57;93521.78;;;11.08;100.00
51829;BME280;37881;48.024;8.774;2023-05-10T05:20:24;93516.56;;;11.30;100.00
51829;BME280;37881;48.024;8.774;2023-05-10T05:22:51;93516.81;;;11.36;100.00
51829;BME280;37881;48.024;8.774;2023-05-10T05:25:17;93512.84;;;11.53;100.00
51829;BME280;37881;48.024;8.774;2023-05-10T05:27:44;93517.31;;;11.64;100.00
51829;BME280;37881;48.024;8.774;2023-05-10T05:30:11;93513.69;;;11.67;100.00
51829;BME280;37881;48.024;8.774;2023-05-10T05:32:38;93520.09;;;11.76;100.00
51829;BME280;37881;48.024;8.774;2023-05-10T05:35:05;93521.06;;;11.70;100.00
51829;BME280;37881;48.024;8.774;2023-05-10T05:37:32;93522.94;;;11.73;100.00
51829;BME280;37881;48.024;8.774;2023-05-10T05:39:59;93515.31;;;11.64;100.00
51829;BME280;37881;48.024;8.774;2023-05-10T05:42:27;93530.50;;;11.69;100.00
51829;BME280;37881;48.024;8.774;2023-05-10T05:44:54;93537.84;;;11.43;100.00
51829;BME280;37881;48.024;8.774;2023-05-10T05:47:21;93539.31;;;11.31;100.00
51829;BME280;37881;48.024;8.774;2023-05-10T05:49:47;93550.19;;;11.51;100.00
51829;BME280;37881;48.024;8.774;2023-05-10T05:52:14;93548.59;;;11.37;100.00
51829;BME280;37881;48.024;8.774;2023-05-10T05:54:41;93552.59;;;11.32;100.00
51829;BME280;37881;48.024;8.774;2023-05-10T05:57:08;93550.53;;;11.36;100.00
51829;BME280;37881;48.024;8.774;2023-05-10T05:59:35;93553.47;;;11.13;100.00
51829;BME280;37881;48.024;8.774;2023-05-10T06:02:02;93561.53;;;11.20;100.00
51829;BME280;37881;48.024;8.774;2023-05-10T06:04:28;93562.28;;;11.20;100.00
51829;BME280;37881;48.024;8.774;2023-05-10T06:06:55;93556.66;;;11.44;100.00
51829;BME280;37881;48.024;8.774;2023-05-10T06:09:22;93554.59;;;11.48;100.00
51829;BME280;37881;48.024;8.774;2023-05-10T06:11:50;93551.00;;;11.35;100.00
51829;BME280;37881;48.024;8.774;2023-05-10T06:14:20;93553.56;;;11.26;100.00
51829;BME280;37881;48.024;8.774;2023-05-10T06:16:47;93555.19;;;11.23;100.00
51829;BME280;37881;48.024;8.774;2023-05-10T06:19:13;93554.50;;;11.19;100.00
51829;BME280;37881;48.024;8.774;2023-05-10T06:21:40;93559.75;;;11.30;100.00
51829;BME280;37881;48.024;8.774;2023-05-10T06:24:07;93553.53;;;11.58;100.00
51829;BME280;37881;48.024;8.774;2023-05-10T06:26:33;93547.41;;;11.84;100.00
51829;BME280;37881;48.024;8.774;2023-05-10T06:29:00;93547.44;;;12.13;100.00
51829;BME280;37881;48.024;8.774;2023-05-10T06:31:27;93542.81;;;12.39;100.00
51829;BME280;37881;48.024;8.774;2023-05-10T06:33:54;93553.38;;;12.41;100.00
51829;BME280;37881;48.024;8.774;2023-05-10T06:36:22;93551.88;;;12.52;100.00
51829;BME280;37881;48.024;8.774;2023-05-10T06:38:50;93551.88;;;12.65;100.00
51829;BME280;37881;48.024;8.774;2023-05-10T06:41:17;93546.50;;;12.62;100.00
51829;BME280;37881;48.024;8.774;2023-05-10T06:43:44;93558.53;;;12.93;100.00
51829;BME280;37881;48.024;8.774;2023-05-10T06:46:11;93550.38;;;12.77;100.00
51829;BME280;37881;48.024;8.774;2023-05-10T06:48:37;93549.59;;;12.64;100.00
51829;BME280;37881;48.024;8.774;2023-05-10T06:51:04;93549.13;;;12.65;100.00
51829;BME280;37881;48.024;8.774;2023-05-10T06:53:31;93548.88;;;12.47;100.00
51829;BME280;37881;48.024;8.774;2023-05-10T06:55:57;93545.97;;;12.79;100.00
51829;BME280;37881;48.024;8.774;2023-05-10T06:58:24;93551.94;;;13.16;100.00
51829;BME280;37881;48.024;8.774;2023-05-10T07:00:51;93551.50;;;13.44;100.00
51829;BME280;37881;48.024;8.774;2023-05-10T07:03:17;93555.69;;;13.35;100.00
51829;BME280;37881;48.024;8.774;2023-05-10T07:05:44;93554.91;;;13.61;100.00
51829;BME280;37881;48.024;8.774;2023-05-10T07:08:11;93553.59;;;13.27;100.00
51829;BME280;37881;48.024;8.774;2023-05-10T07:10:37;93564.84;;;13.07;100.00
51829;BME280;37881;48.024;8.774;2023-05-10T07:13:04;93564.63;;;13.27;100.00
51829;BME280;37881;48.024;8.774;2023-05-10T07:15:31;93559.44;;;13.29;100.00
51829;BME280;37881;48.024;8.774;2023-05-10T07:17:58;93562.84;;;13.46;100.00
51829;BME280;37881;48.024;8.774;2023-05-10T07:20:25;93553.25;;;13.63;100.00
51829;BME280;37881;48.024;8.774;2023-05-10T07:22:51;93556.53;;;14.18;100.00
51829;BME280;37881;48.024;8.774;2023-05-10T07:25:18;93549.97;;;13.90;100.00
51829;BME280;37881;48.024;8.774;2023-05-10T07:27:45;93551.00;;;14.18;100.00
51829;BME280;37881;48.024;8.774;2023-05-10T07:30:12;93554.97;;;14.17;100.00
51829;BME280;37881;48.024;8.774;2023-05-10T07:32:39;93555.06;;;14.49;100.00
51829;BME280;37881;48.024;8.774;2023-05-10T07:35:08;93555.91;;;14.02;100.00
51829;BME280;37881;48.024;8.774;2023-05-10T07:37:35;93552.53;;;14.42;100.00
51829;BME280;37881;48.024;8.774;2023-05-10T07:40:02;93556.94;;;14.74;100.00
51829;BME280;37881;48.024;8.774;2023-05-10T07:42:29;93564.75;;;14.75;100.00
51829;BME280;37881;48.024;8.774;2023-05-10T07:44:55;93559.75;;;14.04;100.00
51829;BME280;37881;48.024;8.774;2023-05-10T07:47:22;93554.72;;;14.25;100.00
51829;BME280;37881;48.024;8.774;2023-05-10T07:49:49;93562.63;;;13.53;100.00
51829;BME280;37881;48.024;8.774;2023-05-10T07:52:16;93561.66;;;13.47;100.00
51829;BME280;37881;48.024;8.774;2023-05-10T07:54:43;93556.38;;;13.52;100.00
51829;BME280;37881;48.024;8.774;2023-05-10T07:57:11;93567.25;;;13.69;100.00
51829;BME280;37881;48.024;8.774;2023-05-10T07:59:37;93561.84;;;14.13;100.00
51829;BME280;37881;48.024;8.774;2023-05-10T08:02:04;93569.66;;;14.36;100.00
51829;BME280;37881;48.024;8.774;2023-05-10T08:04:31;93562.63;;;14.35;100.00
51829;BME280;37881;48.024;8.774;2023-05-10T08:06:58;93561.38;;;14.71;100.00
51829;BME280;37881;48.024;8.774;2023-05-10T08:09:25;93562.59;;;15.02;100.00
51829;BME280;37881;48.024;8.774;2023-05-10T08:11:51;93565.94;;;14.96;100.00
51829;BME280;37881;48.024;8.774;2023-05-10T08:14:18;93564.38;;;15.17;100.00
51829;BME280;37881;48.024;8.774;2023-05-10T08:16:45;93567.38;;;15.01;100.00
51829;BME280;37881;48.024;8.774;2023-05-10T08:19:12;93580.16;;;14.86;100.00
51829;BME280;37881;48.024;8.774;2023-05-10T08:21:38;93574.34;;;14.62;100.00
51829;BME280;37881;48.024;8.774;2023-05-10T08:24:06;93570.28;;;14.53;100.00
51829;BME280;37881;48.024;8.774;2023-05-10T08:26:33;93579.97;;;14.01;100.00
51829;BME280;37881;48.024;8.774;2023-05-10T08:29:00;93581.00;;;12.08;100.00
51829;BME280;37881;48.024;8.774;2023-05-10T08:31:27;93594.00;;;11.25;100.00
51829;BME280;37881;48.024;8.774;2023-05-10T08:33:53;93595.09;;;11.77;100.00
51829;BME280;37881;48.024;8.774;2023-05-10T08:36:20;93598.34;;;11.88;100.00
51829;BME280;37881;48.024;8.774;2023-05-10T08:38:51;93597.19;;;11.89;100.00
51829;BME280;37881;48.024;8.774;2023-05-10T08:41:22;93598.91;;;11.99;100.00
51829;BME280;37881;48.024;8.774;2023-05-10T08:43:52;93595.69;;;12.59;100.00
51829;BME280;37881;48.024;8.774;2023-05-10T08:46:19;93604.34;;;12.45;100.00
51829;BME280;37881;48.024;8.774;2023-05-10T08:48:49;93599.50;;;12.36;100.00
51829;BME280;37881;48.024;8.774;2023-05-10T08:51:18;93599.84;;;12.51;100.00
51829;BME280;37881;48.024;8.774;2023-05-10T08:53:45;93597.59;;;12.75;100.00
51829;BME280;37881;48.024;8.774;2023-05-10T08:56:12;93602.25;;;12.78;100.00
51829;BME280;37881;48.024;8.774;2023-05-10T08:58:39;93603.09;;;12.63;100.00
51829;BME280;37881;48.024;8.774;2023-05-10T09:01:06;93600.78;;;12.61;100.00
51829;BME280;37881;48.024;8.774;2023-05-10T09:03:33;93595.09;;;12.81;100.00
51829;BME280;37881;48.024;8.774;2023-05-10T09:06:01;93599.09;;;12.93;100.00
51829;BME280;37881;48.024;8.774;2023-05-10T09:08:27;93605.97;;;13.39;100.00
51829;BME280;37881;48.024;8.774;2023-05-10T09:10:55;93595.59;;;13.18;100.00
51829;BME280;37881;48.024;8.774;2023-05-10T09:13:22;93600.25;;;12.66;100.00
51829;BME280;37881;48.024;8.774;2023-05-10T09:15:51;93592.56;;;12.87;100.00
51829;BME280;37881;48.024;8.774;2023-05-10T09:18:18;93597.47;;;13.34;100.00
51829;BME280;37881;48.024;8.774;2023-05-10T09:20:45;93603.88;;;13.44;100.00
51829;BME280;37881;48.024;8.774;2023-05-10T09:23:12;93603.84;;;13.05;100.00
51829;BME280;37881;48.024;8.774;2023-05-10T09:25:41;93603.13;;;12.75;100.00
51829;BME280;37881;48.024;8.774;2023-05-10T09:28:08;93604.28;;;13.16;100.00
51829;BME280;37881;48.024;8.774;2023-05-10T09:30:36;93603.75;;;13.73;100.00
51829;BME280;37881;48.024;8.774;2023-05-10T09:33:03;93597.16;;;13.57;100.00
51829;BME280;37881;48.024;8.774;2023-05-10T09:35:32;93605.13;;;13.90;100.00
51829;BME280;37881;48.024;8.774;2023-05-10T09:38:03;93601.44;;;14.76;100.00
51829;BME280;37881;48.024;8.774;2023-05-10T09:40:30;93603.53;;;15.16;100.00
51829;BME280;37881;48.024;8.774;2023-05-10T09:43:03;93602.88;;;15.12;100.00
51829;BME280;37881;48.024;8.774;2023-05-10T09:45:32;93599.31;;;15.02;100.00
51829;BME280;37881;48.024;8.774;2023-05-10T09:48:03;93593.28;;;16.16;100.00
51829;BME280;37881;48.024;8.774;2023-05-10T09:50:30;93592.81;;;16.54;100.00
51829;BME280;37881;48.024;8.774;2023-05-10T09:52:59;93594.75;;;15.80;100.00
51829;BME280;37881;48.024;8.774;2023-05-10T09:58:02;93605.91;;;16.45;100.00
51829;BME280;37881;48.024;8.774;2023-05-10T10:00:38;93600.75;;;15.88;100.00
51829;BME280;37881;48.024;8.774;2023-05-10T10:03:05;93600.81;;;16.62;100.00
51829;BME280;37881;48.024;8.774;2023-05-10T10:05:34;93590.19;;;16.97;97.65
51829;BME280;37881;48.024;8.774;2023-05-10T10:08:05;93609.09;;;16.15;100.00
51829;BME280;37881;48.024;8.774;2023-05-10T10:10:33;93608.19;;;16.55;100.00
51829;BME280;37881;48.024;8.774;2023-05-10T10:13:00;93590.00;;;17.10;97.63
51829;BME280;37881;48.024;8.774;2023-05-10T10:15:28;93597.41;;;17.13;95.41
51829;BME280;37881;48.024;8.774;2023-05-10T10:17:54;93590.19;;;17.49;93.16
51829;BME280;37881;48.024;8.774;2023-05-10T10:20:22;93598.50;;;16.42;94.37
51829;BME280;37881;48.024;8.774;2023-05-10T10:22:49;93602.81;;;16.43;94.43
51829;BME280;37881;48.024;8.774;2023-05-10T10:25:17;93597.25;;;17.16;92.63
51829;BME280;37881;48.024;8.774;2023-05-10T10:35:55;93597.09;;;19.58;73.34
51829;BME280;37881;48.024;8.774;2023-05-10T10:38:24;93586.00;;;19.28;71.53
51829;BME280;37881;48.024;8.774;2023-05-10T10:41:27;93589.94;;;18.91;68.83
51829;BME280;37881;48.024;8.774;2023-05-10T10:44:23;93596.81;;;18.81;68.50
51829;BME280;37881;48.024;8.774;2023-05-10T10:54:57;93589.31;;;19.62;58.27
51829;BME280;37881;48.024;8.774;2023-05-10T10:57:25;93594.00;;;19.85;56.72
51829;BME280;37881;48.024;8.774;2023-05-10T11:00:18;93596.03;;;20.41;55.19
51829;BME280;37881;48.024;8.774;2023-05-10T11:08:10;93587.91;;;19.51;60.51
51829;BME280;37881;48.024;8.774;2023-05-10T11:10:38;93593.28;;;19.40;58.47
51829;BME280;37881;48.024;8.774;2023-05-10T11:13:06;93609.16;;;17.93;62.31
51829;BME280;37881;48.024;8.774;2023-05-10T11:15:39;93612.06;;;16.67;74.59
51829;BME280;37881;48.024;8.774;2023-05-10T11:18:20;93618.31;;;16.03;85.55
51829;BME280;37881;48.024;8.774;2023-05-10T11:21:00;93631.38;;;15.62;89.96
51829;BME280;37881;48.024;8.774;2023-05-10T11:23:53;93629.59;;;15.15;93.28
51829;BME280;37881;48.024;8.774;2023-05-10T11:26:24;93642.63;;;14.61;97.32
51829;BME280;37881;48.024;8.774;2023-05-10T11:28:54;93649.94;;;14.42;97.85
51829;BME280;37881;48.024;8.774;2023-05-10T11:31:22;93648.19;;;14.35;99.30
51829;BME280;37881;48.024;8.774;2023-05-10T11:33:51;93646.97;;;14.36;98.42
51829;BME280;37881;48.024;8.774;2023-05-10T11:36:24;93651.88;;;14.19;100.00
51829;BME280;37881;48.024;8.774;2023-05-10T11:38:52;93648.63;;;14.47;98.45
51829;BME280;37881;48.024;8.774;2023-05-10T11:41:23;93640.13;;;13.93;100.00
51829;BME280;37881;48.024;8.774;2023-05-10T11:43:54;93651.72;;;14.36;95.44
51829;BME280;37881;48.024;8.774;2023-05-10T11:46:22;93653.22;;;14.85;93.65
51829;BME280;37881;48.024;8.774;2023-05-10T11:48:51;93650.13;;;14.83;93.18
51829;BME280;37881;48.024;8.774;2023-05-10T11:51:22;93651.59;;;14.39;97.63
51829;BME280;37881;48.024;8.774;2023-05-10T11:53:52;93651.41;;;13.73;98.44
51829;BME280;37881;48.024;8.774;2023-05-10T11:56:18;93663.91;;;14.26;99.09
51829;BME280;37881;48.024;8.774;2023-05-10T11:58:53;93649.50;;;13.32;100.00
51829;BME280;37881;48.024;8.774;2023-05-10T12:01:21;93651.69;;;13.88;100.00
51829;BME280;37881;48.024;8.774;2023-05-10T12:03:48;93639.38;;;13.67;100.00
51829;BME280;37881;48.024;8.774;2023-05-10T12:06:18;93646.06;;;13.92;100.00
51829;BME280;37881;48.024;8.774;2023-05-10T12:08:47;93640.22;;;14.03;100.00
51829;BME280;37881;48.024;8.774;2023-05-10T12:11:14;93640.94;;;14.29;100.00
51829;BME280;37881;48.024;8.774;2023-05-10T12:13:44;93638.06;;;14.89;100.00
51829;BME280;37881;48.024;8.774;2023-05-10T12:16:18;93634.13;;;14.08;100.00
51829;BME280;37881;48.024;8.774;2023-05-10T12:18:50;93634.06;;;14.33;100.00
51829;BME280;37881;48.024;8.774;2023-05-10T12:21:19;93622.97;;;13.51;100.00
51829;BME280;37881;48.024;8.774;2023-05-10T12:23:48;93632.88;;;14.22;100.00
51829;BME280;37881;48.024;8.774;2023-05-10T12:26:16;93622.38;;;14.86;100.00
51829;BME280;37881;48.024;8.774;2023-05-10T12:28:43;93625.28;;;12.85;100.00
51829;BME280;37881;48.024;8.774;2023-05-10T12:31:10;93626.84;;;12.98;100.00
51829;BME280;37881;48.024;8.774;2023-05-10T12:33:39;93633.56;;;12.55;100.00
51829;BME280;37881;48.024;8.774;2023-05-10T12:36:12;93625.94;;;13.56;100.00
51829;BME280;37881;48.024;8.774;2023-05-10T12:38:42;93615.00;;;14.83;100.00
51829;BME280;37881;48.024;8.774;2023-05-10T12:41:11;93630.00;;;14.60;100.00
51829;BME280;37881;48.024;8.774;2023-05-10T12:43:39;93623.47;;;14.32;100.00
51829;BME280;37881;48.024;8.774;2023-05-10T12:46:07;93628.78;;;13.66;100.00
51829;BME280;37881;48.024;8.774;2023-05-10T12:48:35;93616.97;;;13.91;100.00
51829;BME280;37881;48.024;8.774;2023-05-10T12:51:03;93624.66;;;14.44;100.00
51829;BME280;37881;48.024;8.774;2023-05-10T12:53:30;93621.13;;;15.31;100.00
51829;BME280;37881;48.024;8.774;2023-05-10T12:55:57;93606.59;;;15.49;100.00
51829;BME280;37881;48.024;8.774;2023-05-10T12:58:24;93617.28;;;13.93;88.55
51829;BME280;37881;48.024;8.774;2023-05-10T13:01:02;93629.56;;;16.18;82.33
51829;BME280;37881;48.024;8.774;2023-05-10T13:03:29;93612.03;;;17.04;71.46
51829;BME280;37881;48.024;8.774;2023-05-10T13:05:57;93610.03;;;17.99;66.44
51829;BME280;37881;48.024;8.774;2023-05-10T13:08:23;93605.53;;;18.02;60.19
51829;BME280;37881;48.024;8.774;2023-05-10T13:10:50;93609.84;;;17.69;56.26
51829;BME280;37881;48.024;8.774;2023-05-10T13:13:17;93600.94;;;17.56;55.72
51829;BME280;37881;48.024;8.774;2023-05-10T13:15:44;93606.06;;;17.91;56.36
51829;BME280;37881;48.024;8.774;2023-05-10T13:18:11;93604.50;;;18.62;53.72
51829;BME280;37881;48.024;8.774;2023-05-10T13:20:38;93612.69;;;18.42;51.47
51829;BME280;37881;48.024;8.774;2023-05-10T13:23:04;93608.66;;;17.52;51.64
51829;BME280;37881;48.024;8.774;2023-05-10T13:25:31;93605.09;;;17.61;53.77
51829;BME280;37881;48.024;8.774;2023-05-10T13:27:58;93601.84;;;17.62;53.60
51829;BME280;37881;48.024;8.774;2023-05-10T13:30:24;93606.72;;;17.43;54.20
51829;BME280;37881;48.024;8.774;2023-05-10T13:32:51;93607.78;;;17.79;53.23
51829;BME280;37881;48.024;8.774;2023-05-10T13:35:18;93613.81;;;17.87;52.81
51829;BME280;37881;48.024;8.774;2023-05-10T13:37:45;93609.31;;;17.89;52.89